sensor_id;sensor_type;location;lat;lon;timestamp;temperature;humidity
6293;DHT22;3179;54.350;10.102;2022-08-11T00:01:05;19.20;99.90
6293;DHT22;3179;54.350;10.102;2022-08-11T00:03:34;19.20;99.90
6293;DHT22;3179;54.350;10.102;2022-08-11T00:06:02;19.10;99.90
6293;DHT22;3179;54.350;10.102;2022-08-11T00:08:30;19.10;99.90
6293;DHT22;3179;54.350;10.102;2022-08-11T00:11:01;19.10;99.90
6293;DHT22;3179;54.350;10.102;2022-08-11T00:13:34;19.00;99.90
6293;DHT22;3179;54.350;10.102;2022-08-11T00:16:03;19.10;99.90
6293;DHT22;3179;54.350;10.102;2022-08-11T00:18:38;19.00;99.90
6293;DHT22;3179;54.350;10.102;2022-08-11T00:21:07;19.00;99.90
6293;DHT22;3179;54.350;10.102;2022-08-11T00:23:40;19.00;99.90
6293;DHT22;3179;54.350;10.102;2022-08-11T00:26:09;18.90;99.90
6293;DHT22;3179;54.350;10.102;2022-08-11T00:28:36;18.90;99.90
6293;DHT22;3179;54.350;10.102;2022-08-11T00:31:04;18.80;99.90
6293;DHT22;3179;54.350;10.102;2022-08-11T00:33:36;18.80;99.90
6293;DHT22;3179;54.350;10.102;2022-08-11T00:36:04;18.80;99.90
6293;DHT22;3179;54.350;10.102;2022-08-11T00:38:37;18.80;99.90
6293;DHT22;3179;54.350;10.102;2022-08-11T00:41:15;18.70;99.90
6293;DHT22;3179;54.350;10.102;2022-08-11T00:43:56;18.70;99.90
6293;DHT22;3179;54.350;10.102;2022-08-11T00:46:36;18.70;99.90
6293;DHT22;3179;54.350;10.102;2022-08-11T00:49:12;18.70;99.90
6293;DHT22;3179;54.350;10.102;2022-08-11T00:51:58;18.60;99.90
6293;DHT22;3179;54.350;10.102;2022-08-11T00:55:02;18.60;99.90
6293;DHT22;3179;54.350;10.102;2022-08-11T01:00:33;18.60;99.90
6293;DHT22;3179;54.350;10.102;2022-08-11T01:03:17;18.50;99.90
6293;DHT22;3179;54.350;10.102;2022-08-11T01:05:54;18.50;99.90
6293;DHT22;3179;54.350;10.102;2022-08-11T01:11:45;18.50;99.90
6293;DHT22;3179;54.350;10.102;2022-08-11T01:17:43;18.40;99.90
6293;DHT22;3179;54.350;10.102;2022-08-11T01:30:02;18.30;99.90
6293;DHT22;3179;54.350;10.102;2022-08-11T01:35:43;18.30;99.90
6293;DHT22;3179;54.350;10.102;2022-08-11T01:41:48;18.30;99.90
6293;DHT22;3179;54.350;10.102;2022-08-11T01:45:02;18.20;99.90
6293;DHT22;3179;54.350;10.102;2022-08-11T01:47:37;18.20;99.90
6293;DHT22;3179;54.350;10.102;2022-08-11T01:50:24;18.20;99.90
6293;DHT22;3179;54.350;10.102;2022-08-11T01:53:03;18.20;99.90
6293;DHT22;3179;54.350;10.102;2022-08-11T01:55:42;18.20;99.90
6293;DHT22;3179;54.350;10.102;2022-08-11T01:58:15;18.10;99.90
6293;DHT22;3179;54.350;10.102;2022-08-11T02:00:52;18.20;99.90
6293;DHT22;3179;54.350;10.102;2022-08-11T02:03:28;18.10;99.90
6293;DHT22;3179;54.350;10.102;2022-08-11T02:06:04;18.10;99.90
6293;DHT22;3179;54.350;10.102;2022-08-11T02:09:05;18.10;99.90
6293;DHT22;3179;54.350;10.102;2022-08-11T02:11:36;18.10;99.90
6293;DHT22;3179;54.350;10.102;2022-08-11T02:14:14;18.10;99.90
6293;DHT22;3179;54.350;10.102;2022-08-11T02:17:14;18.00;99.90
6293;DHT22;3179;54.350;10.102;2022-08-11T02:19:54;18.00;99.90
6293;DHT22;3179;54.350;10.102;2022-08-11T02:22:49;18.00;99.90
6293;DHT22;3179;54.350;10.102;2022-08-11T02:25:37;17.90;99.90
6293;DHT22;3179;54.350;10.102;2022-08-11T02:28:12;18.00;99.90
6293;DHT22;3179;54.350;10.102;2022-08-11T02:30:52;17.90;99.90
6293;DHT22;3179;54.350;10.102;2022-08-11T02:33:41;17.90;99.90
6293;DHT22;3179;54.350;10.102;2022-08-11T02:36:11;17.80;99.90
6293;DHT22;3179;54.350;10.102;2022-08-11T02:38:50;17.90;99.90
6293;DHT22;3179;54.350;10.102;2022-08-11T02:41:24;17.90;99.90
6293;DHT22;3179;54.350;10.102;2022-08-11T02:44:26;17.90;99.90
6293;DHT22;3179;54.350;10.102;2022-08-11T02:47:01;17.80;99.90
6293;DHT22;3179;54.350;10.102;2022-08-11T02:49:44;17.80;99.90
6293;DHT22;3179;54.350;10.102;2022-08-11T02:52:24;17.80;99.90
6293;DHT22;3179;54.350;10.102;2022-08-11T02:55:09;17.80;99.90
6293;DHT22;3179;54.350;10.102;2022-08-11T02:57:48;17.80;99.90
6293;DHT22;3179;54.350;10.102;2022-08-11T03:00:17;17.80;99.90
6293;DHT22;3179;54.350;10.102;2022-08-11T03:02:59;17.70;99.90
6293;DHT22;3179;54.350;10.102;2022-08-11T03:05:45;17.70;99.90
6293;DHT22;3179;54.350;10.102;2022-08-11T03:08:44;17.70;99.90
6293;DHT22;3179;54.350;10.102;2022-08-11T03:11:20;17.70;99.90
6293;DHT22;3179;54.350;10.102;2022-08-11T03:14:14;17.70;99.90
6293;DHT22;3179;54.350;10.102;2022-08-11T03:17:14;17.70;99.90
6293;DHT22;3179;54.350;10.102;2022-08-11T03:19:52;17.70;99.90
6293;DHT22;3179;54.350;10.102;2022-08-11T03:22:23;17.70;99.90
6293;DHT22;3179;54.350;10.102;2022-08-11T03:24:57;17.60;99.90
6293;DHT22;3179;54.350;10.102;2022-08-11T03:27:48;17.70;99.90
6293;DHT22;3179;54.350;10.102;2022-08-11T03:30:22;17.60;99.90
6293;DHT22;3179;54.350;10.102;2022-08-11T03:33:01;17.60;99.90
6293;DHT22;3179;54.350;10.102;2022-08-11T03:36:04;17.60;99.90
6293;DHT22;3179;54.350;10.102;2022-08-11T03:38:44;17.60;99.90
6293;DHT22;3179;54.350;10.102;2022-08-11T03:41:19;17.60;99.90
6293;DHT22;3179;54.350;10.102;2022-08-11T03:44:16;17.50;99.90
6293;DHT22;3179;54.350;10.102;2022-08-11T03:47:00;17.50;99.90
6293;DHT22;3179;54.350;10.102;2022-08-11T03:49:39;17.50;99.90
6293;DHT22;3179;54.350;10.102;2022-08-11T03:52:19;17.40;99.90
6293;DHT22;3179;54.350;10.102;2022-08-11T03:55:01;17.50;99.90
6293;DHT22;3179;54.350;10.102;2022-08-11T04:00:55;17.50;99.90
6293;DHT22;3179;54.350;10.102;2022-08-11T04:06:56;17.40;99.90
6293;DHT22;3179;54.350;10.102;2022-08-11T04:10:22;17.40;99.90
6293;DHT22;3179;54.350;10.102;2022-08-11T04:13:12;17.40;99.90
6293;DHT22;3179;54.350;10.102;2022-08-11T04:16:05;17.40;99.90
6293;DHT22;3179;54.350;10.102;2022-08-11T04:22:15;17.40;99.90
6293;DHT22;3179;54.350;10.102;2022-08-11T04:28:11;17.30;99.90
6293;DHT22;3179;54.350;10.102;2022-08-11T04:30:58;17.40;99.90
6293;DHT22;3179;54.350;10.102;2022-08-11T04:37:11;17.40;99.90
6293;DHT22;3179;54.350;10.102;2022-08-11T04:40:17;17.30;99.90
6293;DHT22;3179;54.350;10.102;2022-08-11T04:49:06;17.40;99.90
6293;DHT22;3179;54.350;10.102;2022-08-11T04:52:18;17.40;99.90
6293;DHT22;3179;54.350;10.102;2022-08-11T04:55:31;17.40;99.90
6293;DHT22;3179;54.350;10.102;2022-08-11T04:58:24;17.40;99.90
6293;DHT22;3179;54.350;10.102;2022-08-11T05:01:29;17.40;99.90
6293;DHT22;3179;54.350;10.102;2022-08-11T05:04:30;17.50;99.90
6293;DHT22;3179;54.350;10.102;2022-08-11T05:07:48;17.50;99.90
6293;DHT22;3179;54.350;10.102;2022-08-11T05:10:27;17.60;99.90
6293;DHT22;3179;54.350;10.102;2022-08-11T05:13:02;17.70;99.90
6293;DHT22;3179;54.350;10.102;2022-08-11T05:15:50;17.70;99.90
6293;DHT22;3179;54.350;10.102;2022-08-11T05:18:45;17.70;99.90
6293;DHT22;3179;54.350;10.102;2022-08-11T05:21:31;17.80;99.90
6293;DHT22;3179;54.350;10.102;2022-08-11T05:24:20;17.80;99.90
6293;DHT22;3179;54.350;10.102;2022-08-11T05:27:09;17.80;99.90
6293;DHT22;3179;54.350;10.102;2022-08-11T05:30:00;17.90;99.90
6293;DHT22;3179;54.350;10.102;2022-08-11T05:32:58;17.90;99.90
6293;DHT22;3179;54.350;10.102;2022-08-11T05:35:44;18.00;99.90
6293;DHT22;3179;54.350;10.102;2022-08-11T05:38:15;18.00;99.90
6293;DHT22;3179;54.350;10.102;2022-08-11T05:41:02;18.10;99.90
6293;DHT22;3179;54.350;10.102;2022-08-11T05:43:49;18.10;99.90
6293;DHT22;3179;54.350;10.102;2022-08-11T05:46:38;18.20;99.90
6293;DHT22;3179;54.350;10.102;2022-08-11T05:49:22;18.20;99.90
6293;DHT22;3179;54.350;10.102;2022-08-11T05:52:13;18.30;99.90
6293;DHT22;3179;54.350;10.102;2022-08-11T05:55:02;18.30;99.90
6293;DHT22;3179;54.350;10.102;2022-08-11T05:57:46;18.40;99.90
6293;DHT22;3179;54.350;10.102;2022-08-11T06:00:15;18.50;99.90
6293;DHT22;3179;54.350;10.102;2022-08-11T06:02:45;18.50;99.90
6293;DHT22;3179;54.350;10.102;2022-08-11T06:05:15;18.60;99.90
6293;DHT22;3179;54.350;10.102;2022-08-11T06:07:43;18.60;99.90
6293;DHT22;3179;54.350;10.102;2022-08-11T06:10:11;18.70;99.90
6293;DHT22;3179;54.350;10.102;2022-08-11T06:12:40;18.70;99.90
6293;DHT22;3179;54.350;10.102;2022-08-11T06:15:10;18.80;99.90
6293;DHT22;3179;54.350;10.102;2022-08-11T06:17:44;18.80;99.90
6293;DHT22;3179;54.350;10.102;2022-08-11T06:20:14;18.90;99.90
6293;DHT22;3179;54.350;10.102;2022-08-11T06:22:44;18.90;99.90
6293;DHT22;3179;54.350;10.102;2022-08-11T06:25:13;18.90;99.90
6293;DHT22;3179;54.350;10.102;2022-08-11T06:27:43;19.00;99.90
6293;DHT22;3179;54.350;10.102;2022-08-11T06:30:11;19.00;99.90
6293;DHT22;3179;54.350;10.102;2022-08-11T06:32:44;19.00;99.90
6293;DHT22;3179;54.350;10.102;2022-08-11T06:35:18;19.10;99.90
6293;DHT22;3179;54.350;10.102;2022-08-11T06:37:59;19.20;99.90
6293;DHT22;3179;54.350;10.102;2022-08-11T06:40:35;19.20;99.90
6293;DHT22;3179;54.350;10.102;2022-08-11T06:43:10;19.30;99.90
6293;DHT22;3179;54.350;10.102;2022-08-11T06:45:49;19.30;99.90
6293;DHT22;3179;54.350;10.102;2022-08-11T06:48:21;19.40;99.90
6293;DHT22;3179;54.350;10.102;2022-08-11T06:50:49;19.40;99.90
6293;DHT22;3179;54.350;10.102;2022-08-11T06:53:36;19.40;99.90
6293;DHT22;3179;54.350;10.102;2022-08-11T06:56:05;19.50;99.90
6293;DHT22;3179;54.350;10.102;2022-08-11T06:58:50;19.60;99.90
6293;DHT22;3179;54.350;10.102;2022-08-11T07:01:40;19.60;99.90
6293;DHT22;3179;54.350;10.102;2022-08-11T07:04:20;19.60;99.90
6293;DHT22;3179;54.350;10.102;2022-08-11T07:07:00;19.70;99.90
6293;DHT22;3179;54.350;10.102;2022-08-11T07:10:12;19.70;99.90
6293;DHT22;3179;54.350;10.102;2022-08-11T07:13:02;19.70;99.90
6293;DHT22;3179;54.350;10.102;2022-08-11T07:15:47;19.80;99.90
6293;DHT22;3179;54.350;10.102;2022-08-11T07:18:20;19.80;99.90
6293;DHT22;3179;54.350;10.102;2022-08-11T07:21:10;19.80;99.90
6293;DHT22;3179;54.350;10.102;2022-08-11T07:23:57;19.90;99.90
6293;DHT22;3179;54.350;10.102;2022-08-11T07:26:47;19.90;99.90
6293;DHT22;3179;54.350;10.102;2022-08-11T07:29:34;20.00;99.90
6293;DHT22;3179;54.350;10.102;2022-08-11T07:32:13;20.00;99.90
6293;DHT22;3179;54.350;10.102;2022-08-11T07:34:46;20.10;99.90
6293;DHT22;3179;54.350;10.102;2022-08-11T07:37:16;20.10;99.90
6293;DHT22;3179;54.350;10.102;2022-08-11T07:39:46;20.20;99.90
6293;DHT22;3179;54.350;10.102;2022-08-11T07:42:21;20.30;99.90
6293;DHT22;3179;54.350;10.102;2022-08-11T07:44:49;20.40;99.90
6293;DHT22;3179;54.350;10.102;2022-08-11T07:47:35;20.40;99.90
6293;DHT22;3179;54.350;10.102;2022-08-11T07:50:25;20.40;99.90
6293;DHT22;3179;54.350;10.102;2022-08-11T07:53:12;20.50;99.90
6293;DHT22;3179;54.350;10.102;2022-08-11T07:55:41;20.60;99.90
6293;DHT22;3179;54.350;10.102;2022-08-11T07:58:09;20.60;99.90
6293;DHT22;3179;54.350;10.102;2022-08-11T08:00:56;20.60;99.90
6293;DHT22;3179;54.350;10.102;2022-08-11T08:03:42;20.70;99.90
6293;DHT22;3179;54.350;10.102;2022-08-11T08:06:28;20.80;99.90
6293;DHT22;3179;54.350;10.102;2022-08-11T08:09:17;20.80;99.90
6293;DHT22;3179;54.350;10.102;2022-08-11T08:12:03;20.90;99.90
6293;DHT22;3179;54.350;10.102;2022-08-11T08:14:48;21.00;99.90
6293;DHT22;3179;54.350;10.102;2022-08-11T08:17:34;21.10;99.90
6293;DHT22;3179;54.350;10.102;2022-08-11T08:20:24;21.10;99.90
6293;DHT22;3179;54.350;10.102;2022-08-11T08:22:52;21.20;99.90
6293;DHT22;3179;54.350;10.102;2022-08-11T08:25:36;21.30;99.90
6293;DHT22;3179;54.350;10.102;2022-08-11T08:28:08;21.40;99.60
6293;DHT22;3179;54.350;10.102;2022-08-11T08:30:36;21.50;99.60
6293;DHT22;3179;54.350;10.102;2022-08-11T08:33:22;21.50;99.60
6293;DHT22;3179;54.350;10.102;2022-08-11T08:35:55;21.60;99.50
6293;DHT22;3179;54.350;10.102;2022-08-11T08:38:36;21.70;99.50
6293;DHT22;3179;54.350;10.102;2022-08-11T08:41:06;21.70;99.50
6293;DHT22;3179;54.350;10.102;2022-08-11T08:43:34;21.70;99.30
6293;DHT22;3179;54.350;10.102;2022-08-11T08:46:03;21.80;99.40
6293;DHT22;3179;54.350;10.102;2022-08-11T08:48:32;21.90;99.40
6293;DHT22;3179;54.350;10.102;2022-08-11T08:51:03;22.00;99.40
6293;DHT22;3179;54.350;10.102;2022-08-11T08:53:50;22.10;99.30
6293;DHT22;3179;54.350;10.102;2022-08-11T08:56:23;22.10;99.20
6293;DHT22;3179;54.350;10.102;2022-08-11T08:58:52;22.20;99.20
6293;DHT22;3179;54.350;10.102;2022-08-11T09:01:20;22.30;99.10
6293;DHT22;3179;54.350;10.102;2022-08-11T09:03:50;22.30;99.00
6293;DHT22;3179;54.350;10.102;2022-08-11T09:06:18;22.40;98.90
6293;DHT22;3179;54.350;10.102;2022-08-11T09:08:47;22.50;98.60
6293;DHT22;3179;54.350;10.102;2022-08-11T09:11:14;22.50;98.50
6293;DHT22;3179;54.350;10.102;2022-08-11T09:14:01;22.60;98.30
6293;DHT22;3179;54.350;10.102;2022-08-11T09:16:28;22.70;98.30
6293;DHT22;3179;54.350;10.102;2022-08-11T09:18:58;22.80;98.30
6293;DHT22;3179;54.350;10.102;2022-08-11T09:21:26;22.90;98.40
6293;DHT22;3179;54.350;10.102;2022-08-11T09:23:53;23.00;98.20
6293;DHT22;3179;54.350;10.102;2022-08-11T09:26:39;23.10;97.90
6293;DHT22;3179;54.350;10.102;2022-08-11T09:29:28;23.10;97.80
6293;DHT22;3179;54.350;10.102;2022-08-11T09:31:56;23.20;97.70
6293;DHT22;3179;54.350;10.102;2022-08-11T09:34:23;23.30;97.80
6293;DHT22;3179;54.350;10.102;2022-08-11T09:36:52;23.40;97.60
6293;DHT22;3179;54.350;10.102;2022-08-11T09:39:38;23.40;97.50
6293;DHT22;3179;54.350;10.102;2022-08-11T09:42:29;23.60;97.30
6293;DHT22;3179;54.350;10.102;2022-08-11T09:45:12;23.60;97.30
6293;DHT22;3179;54.350;10.102;2022-08-11T09:47:43;23.70;97.00
6293;DHT22;3179;54.350;10.102;2022-08-11T09:50:10;23.80;97.00
6293;DHT22;3179;54.350;10.102;2022-08-11T09:52:41;23.80;96.90
6293;DHT22;3179;54.350;10.102;2022-08-11T09:55:13;23.90;96.80
6293;DHT22;3179;54.350;10.102;2022-08-11T09:57:44;24.00;96.90
6293;DHT22;3179;54.350;10.102;2022-08-11T10:00:32;24.10;96.60
6293;DHT22;3179;54.350;10.102;2022-08-11T10:03:05;24.20;96.40
6293;DHT22;3179;54.350;10.102;2022-08-11T10:05:37;24.20;96.30
6293;DHT22;3179;54.350;10.102;2022-08-11T10:08:27;24.30;96.30
6293;DHT22;3179;54.350;10.102;2022-08-11T10:10:55;24.40;96.00
6293;DHT22;3179;54.350;10.102;2022-08-11T10:13:31;24.50;95.90
6293;DHT22;3179;54.350;10.102;2022-08-11T10:16:24;24.50;95.50
6293;DHT22;3179;54.350;10.102;2022-08-11T10:18:51;24.60;95.80
6293;DHT22;3179;54.350;10.102;2022-08-11T10:21:25;24.70;96.00
6293;DHT22;3179;54.350;10.102;2022-08-11T10:23:54;24.80;95.90
6293;DHT22;3179;54.350;10.102;2022-08-11T10:26:41;24.80;96.00
6293;DHT22;3179;54.350;10.102;2022-08-11T10:29:20;24.90;96.00
6293;DHT22;3179;54.350;10.102;2022-08-11T10:32:07;24.90;95.90
6293;DHT22;3179;54.350;10.102;2022-08-11T10:34:52;25.00;95.60
6293;DHT22;3179;54.350;10.102;2022-08-11T10:37:21;25.10;95.60
6293;DHT22;3179;54.350;10.102;2022-08-11T10:39:49;25.10;95.40
6293;DHT22;3179;54.350;10.102;2022-08-11T10:42:16;25.20;95.20
6293;DHT22;3179;54.350;10.102;2022-08-11T10:45:04;25.20;95.20
6293;DHT22;3179;54.350;10.102;2022-08-11T10:47:55;25.30;95.10
6293;DHT22;3179;54.350;10.102;2022-08-11T10:50:22;25.30;95.00
6293;DHT22;3179;54.350;10.102;2022-08-11T10:53:07;25.40;95.10
6293;DHT22;3179;54.350;10.102;2022-08-11T10:55:52;25.50;95.00
6293;DHT22;3179;54.350;10.102;2022-08-11T10:58:38;25.60;95.00
6293;DHT22;3179;54.350;10.102;2022-08-11T11:01:12;25.70;94.80
6293;DHT22;3179;54.350;10.102;2022-08-11T11:03:42;25.70;94.70
6293;DHT22;3179;54.350;10.102;2022-08-11T11:06:32;25.80;94.80
6293;DHT22;3179;54.350;10.102;2022-08-11T11:09:04;25.80;94.20
6293;DHT22;3179;54.350;10.102;2022-08-11T11:11:36;25.90;94.80
6293;DHT22;3179;54.350;10.102;2022-08-11T11:14:24;25.90;94.70
6293;DHT22;3179;54.350;10.102;2022-08-11T11:17:11;26.00;94.40
6293;DHT22;3179;54.350;10.102;2022-08-11T11:20:15;26.00;94.40
6293;DHT22;3179;54.350;10.102;2022-08-11T11:22:43;26.00;94.20
6293;DHT22;3179;54.350;10.102;2022-08-11T11:25:24;26.00;94.20
6293;DHT22;3179;54.350;10.102;2022-08-11T11:28:11;26.20;93.80
6293;DHT22;3179;54.350;10.102;2022-08-11T11:30:49;26.20;93.50
6293;DHT22;3179;54.350;10.102;2022-08-11T11:33:25;26.30;93.60
6293;DHT22;3179;54.350;10.102;2022-08-11T11:42:27;26.30;93.00
6293;DHT22;3179;54.350;10.102;2022-08-11T11:44:56;26.40;93.80
6293;DHT22;3179;54.350;10.102;2022-08-11T11:47:24;26.40;93.70
6293;DHT22;3179;54.350;10.102;2022-08-11T11:49:51;26.50;93.60
6293;DHT22;3179;54.350;10.102;2022-08-11T11:52:20;26.50;93.60
6293;DHT22;3179;54.350;10.102;2022-08-11T11:54:49;26.50;93.30
6293;DHT22;3179;54.350;10.102;2022-08-11T11:57:19;26.60;93.30
6293;DHT22;3179;54.350;10.102;2022-08-11T12:00:07;26.60;93.20
6293;DHT22;3179;54.350;10.102;2022-08-11T12:02:52;26.60;93.10
6293;DHT22;3179;54.350;10.102;2022-08-11T12:05:21;26.70;93.30
6293;DHT22;3179;54.350;10.102;2022-08-11T12:07:48;26.70;93.20
6293;DHT22;3179;54.350;10.102;2022-08-11T12:10:33;26.80;93.20
6293;DHT22;3179;54.350;10.102;2022-08-11T12:13:01;26.80;93.10
6293;DHT22;3179;54.350;10.102;2022-08-11T12:15:47;26.80;93.10
6293;DHT22;3179;54.350;10.102;2022-08-11T12:18:15;26.90;93.10
6293;DHT22;3179;54.350;10.102;2022-08-11T12:20:43;26.90;93.10
6293;DHT22;3179;54.350;10.102;2022-08-11T12:23:11;26.90;93.10
6293;DHT22;3179;54.350;10.102;2022-08-11T12:25:56;26.90;93.30
6293;DHT22;3179;54.350;10.102;2022-08-11T12:28:42;27.00;92.90
6293;DHT22;3179;54.350;10.102;2022-08-11T12:31:10;27.10;93.00
6293;DHT22;3179;54.350;10.102;2022-08-11T12:33:38;27.10;92.80
6293;DHT22;3179;54.350;10.102;2022-08-11T12:36:07;27.10;92.80
6293;DHT22;3179;54.350;10.102;2022-08-11T12:38:41;27.20;92.70
6293;DHT22;3179;54.350;10.102;2022-08-11T12:41:08;27.20;92.70
6293;DHT22;3179;54.350;10.102;2022-08-11T12:43:53;27.20;92.80
6293;DHT22;3179;54.350;10.102;2022-08-11T12:46:42;27.20;92.90
6293;DHT22;3179;54.350;10.102;2022-08-11T12:49:13;27.20;92.60
6293;DHT22;3179;54.350;10.102;2022-08-11T12:52:03;27.20;92.70
6293;DHT22;3179;54.350;10.102;2022-08-11T12:54:33;27.20;92.50
6293;DHT22;3179;54.350;10.102;2022-08-11T12:57:03;27.30;92.60
6293;DHT22;3179;54.350;10.102;2022-08-11T12:59:49;27.30;92.60
6293;DHT22;3179;54.350;10.102;2022-08-11T13:02:36;27.30;92.30
6293;DHT22;3179;54.350;10.102;2022-08-11T13:05:21;27.50;92.30
6293;DHT22;3179;54.350;10.102;2022-08-11T13:07:48;27.40;92.10
6293;DHT22;3179;54.350;10.102;2022-08-11T13:10:16;27.50;92.00
6293;DHT22;3179;54.350;10.102;2022-08-11T13:13:06;27.40;91.60
6293;DHT22;3179;54.350;10.102;2022-08-11T13:15:33;27.50;91.70
6293;DHT22;3179;54.350;10.102;2022-08-11T13:18:04;27.40;91.70
6293;DHT22;3179;54.350;10.102;2022-08-11T13:20:32;27.40;91.40
6293;DHT22;3179;54.350;10.102;2022-08-11T13:23:00;27.40;91.40
6293;DHT22;3179;54.350;10.102;2022-08-11T13:25:30;27.40;91.50
6293;DHT22;3179;54.350;10.102;2022-08-11T13:27:59;27.50;91.40
6293;DHT22;3179;54.350;10.102;2022-08-11T13:30:28;27.50;91.30
6293;DHT22;3179;54.350;10.102;2022-08-11T13:33:15;27.60;91.10
6293;DHT22;3179;54.350;10.102;2022-08-11T13:35:45;27.60;90.80
6293;DHT22;3179;54.350;10.102;2022-08-11T13:38:14;27.70;90.80
6293;DHT22;3179;54.350;10.102;2022-08-11T13:40:42;27.80;90.60
6293;DHT22;3179;54.350;10.102;2022-08-11T13:43:12;27.80;90.50
6293;DHT22;3179;54.350;10.102;2022-08-11T13:45:40;27.90;90.50
6293;DHT22;3179;54.350;10.102;2022-08-11T13:48:09;28.00;90.60
6293;DHT22;3179;54.350;10.102;2022-08-11T13:50:37;28.00;90.50
6293;DHT22;3179;54.350;10.102;2022-08-11T13:53:24;28.20;90.30
6293;DHT22;3179;54.350;10.102;2022-08-11T13:55:51;28.30;90.30
6293;DHT22;3179;54.350;10.102;2022-08-11T13:58:19;28.50;90.30
6293;DHT22;3179;54.350;10.102;2022-08-11T14:00:49;28.50;89.30
6293;DHT22;3179;54.350;10.102;2022-08-11T14:03:18;28.60;87.80
6293;DHT22;3179;54.350;10.102;2022-08-11T14:05:49;28.60;87.90
6293;DHT22;3179;54.350;10.102;2022-08-11T14:08:22;28.70;87.20
6293;DHT22;3179;54.350;10.102;2022-08-11T14:10:50;28.80;88.00
6293;DHT22;3179;54.350;10.102;2022-08-11T14:13:39;28.90;87.60
6293;DHT22;3179;54.350;10.102;2022-08-11T14:16:08;29.00;87.00
6293;DHT22;3179;54.350;10.102;2022-08-11T14:18:41;29.10;85.40
6293;DHT22;3179;54.350;10.102;2022-08-11T14:21:14;29.10;85.60
6293;DHT22;3179;54.350;10.102;2022-08-11T14:24:00;29.10;84.80
6293;DHT22;3179;54.350;10.102;2022-08-11T14:26:29;29.20;86.30
6293;DHT22;3179;54.350;10.102;2022-08-11T14:29:06;29.20;85.80
6293;DHT22;3179;54.350;10.102;2022-08-11T14:31:35;29.10;84.80
6293;DHT22;3179;54.350;10.102;2022-08-11T14:34:06;28.80;84.40
6293;DHT22;3179;54.350;10.102;2022-08-11T14:36:42;28.70;84.10
6293;DHT22;3179;54.350;10.102;2022-08-11T14:39:11;28.60;83.70
6293;DHT22;3179;54.350;10.102;2022-08-11T14:41:40;28.50;84.70
6293;DHT22;3179;54.350;10.102;2022-08-11T14:44:26;28.60;84.60
6293;DHT22;3179;54.350;10.102;2022-08-11T14:47:11;28.60;84.70
6293;DHT22;3179;54.350;10.102;2022-08-11T14:49:41;28.70;84.10
6293;DHT22;3179;54.350;10.102;2022-08-11T14:52:12;28.70;84.10
6293;DHT22;3179;54.350;10.102;2022-08-11T14:54:42;28.70;83.40
6293;DHT22;3179;54.350;10.102;2022-08-11T14:57:27;28.60;84.30
6293;DHT22;3179;54.350;10.102;2022-08-11T14:59:59;28.60;84.70
6293;DHT22;3179;54.350;10.102;2022-08-11T15:02:26;28.60;83.90
6293;DHT22;3179;54.350;10.102;2022-08-11T15:05:12;28.50;83.70
6293;DHT22;3179;54.350;10.102;2022-08-11T15:07:40;28.50;84.00
6293;DHT22;3179;54.350;10.102;2022-08-11T15:10:08;28.40;82.80
6293;DHT22;3179;54.350;10.102;2022-08-11T15:12:38;28.30;83.50
6293;DHT22;3179;54.350;10.102;2022-08-11T15:15:07;28.20;83.80
6293;DHT22;3179;54.350;10.102;2022-08-11T15:17:53;28.20;83.80
6293;DHT22;3179;54.350;10.102;2022-08-11T15:20:20;28.10;84.10
6293;DHT22;3179;54.350;10.102;2022-08-11T15:23:07;28.10;84.60
6293;DHT22;3179;54.350;10.102;2022-08-11T15:25:55;28.00;84.00
6293;DHT22;3179;54.350;10.102;2022-08-11T15:28:24;28.00;84.50
6293;DHT22;3179;54.350;10.102;2022-08-11T15:31:11;27.90;84.20
6293;DHT22;3179;54.350;10.102;2022-08-11T15:34:05;27.90;84.40
6293;DHT22;3179;54.350;10.102;2022-08-11T15:37:08;27.80;84.50
6293;DHT22;3179;54.350;10.102;2022-08-11T15:40:02;27.80;83.90
6293;DHT22;3179;54.350;10.102;2022-08-11T15:42:57;27.80;83.80
6293;DHT22;3179;54.350;10.102;2022-08-11T15:45:44;27.80;84.10
6293;DHT22;3179;54.350;10.102;2022-08-11T15:48:19;27.70;84.30
6293;DHT22;3179;54.350;10.102;2022-08-11T15:50:51;27.70;83.30
6293;DHT22;3179;54.350;10.102;2022-08-11T15:53:23;27.70;83.30
6293;DHT22;3179;54.350;10.102;2022-08-11T15:55:53;27.60;83.90
6293;DHT22;3179;54.350;10.102;2022-08-11T15:58:23;27.60;84.40
6293;DHT22;3179;54.350;10.102;2022-08-11T16:01:11;27.60;83.80
6293;DHT22;3179;54.350;10.102;2022-08-11T16:04:00;27.50;83.70
6293;DHT22;3179;54.350;10.102;2022-08-11T16:06:52;27.50;83.80
6293;DHT22;3179;54.350;10.102;2022-08-11T16:09:22;27.50;82.50
6293;DHT22;3179;54.350;10.102;2022-08-11T16:11:52;27.50;83.90
6293;DHT22;3179;54.350;10.102;2022-08-11T16:14:22;27.50;84.10
6293;DHT22;3179;54.350;10.102;2022-08-11T16:17:10;27.50;84.20
6293;DHT22;3179;54.350;10.102;2022-08-11T16:19:39;27.50;83.70
6293;DHT22;3179;54.350;10.102;2022-08-11T16:22:09;27.40;83.70
6293;DHT22;3179;54.350;10.102;2022-08-11T16:24:40;27.40;84.00
6293;DHT22;3179;54.350;10.102;2022-08-11T16:27:11;27.40;83.90
6293;DHT22;3179;54.350;10.102;2022-08-11T16:29:41;27.40;83.90
6293;DHT22;3179;54.350;10.102;2022-08-11T16:32:10;27.30;83.90
6293;DHT22;3179;54.350;10.102;2022-08-11T16:34:47;27.30;83.80
6293;DHT22;3179;54.350;10.102;2022-08-11T16:37:33;27.20;84.50
6293;DHT22;3179;54.350;10.102;2022-08-11T16:40:19;27.20;83.90
6293;DHT22;3179;54.350;10.102;2022-08-11T16:42:49;27.20;84.10
6293;DHT22;3179;54.350;10.102;2022-08-11T16:45:35;27.10;83.80
6293;DHT22;3179;54.350;10.102;2022-08-11T16:48:20;27.10;84.40
6293;DHT22;3179;54.350;10.102;2022-08-11T16:50:47;27.10;84.00
6293;DHT22;3179;54.350;10.102;2022-08-11T16:53:14;27.00;84.20
6293;DHT22;3179;54.350;10.102;2022-08-11T16:55:43;27.00;84.20
6293;DHT22;3179;54.350;10.102;2022-08-11T16:58:13;27.00;84.20
6293;DHT22;3179;54.350;10.102;2022-08-11T17:00:59;26.90;83.60
6293;DHT22;3179;54.350;10.102;2022-08-11T17:03:29;26.90;83.80
6293;DHT22;3179;54.350;10.102;2022-08-11T17:06:14;26.90;83.70
6293;DHT22;3179;54.350;10.102;2022-08-11T17:09:01;26.90;83.40
6293;DHT22;3179;54.350;10.102;2022-08-11T17:11:50;26.80;83.20
6293;DHT22;3179;54.350;10.102;2022-08-11T17:14:42;26.70;82.50
6293;DHT22;3179;54.350;10.102;2022-08-11T17:17:13;26.70;82.20
6293;DHT22;3179;54.350;10.102;2022-08-11T17:19:43;26.70;83.00
6293;DHT22;3179;54.350;10.102;2022-08-11T17:22:12;26.70;82.70
6293;DHT22;3179;54.350;10.102;2022-08-11T17:24:58;26.60;82.90
6293;DHT22;3179;54.350;10.102;2022-08-11T17:27:28;26.50;82.60
6293;DHT22;3179;54.350;10.102;2022-08-11T17:30:04;26.50;82.70
6293;DHT22;3179;54.350;10.102;2022-08-11T17:32:34;26.50;82.40
6293;DHT22;3179;54.350;10.102;2022-08-11T17:35:22;26.50;82.30
6293;DHT22;3179;54.350;10.102;2022-08-11T17:38:02;26.40;82.60
6293;DHT22;3179;54.350;10.102;2022-08-11T17:40:31;26.40;82.50
6293;DHT22;3179;54.350;10.102;2022-08-11T17:43:02;26.40;82.90
6293;DHT22;3179;54.350;10.102;2022-08-11T17:45:48;26.40;83.30
6293;DHT22;3179;54.350;10.102;2022-08-11T17:48:35;26.30;83.10
6293;DHT22;3179;54.350;10.102;2022-08-11T17:51:05;26.40;83.30